Time;durP1;ratioP1;P1;durP2;ratioP2;P2;SDS_P1;SDS_P2;PMS_P1;PMS_P2;Temp;Humidity;BMP_temperature;BMP_pressure;BME280_temperature;BME280_humidity;BME280_pressure;Samples;Min_cycle;Max_cycle;Signal;HPM_P1;HPM_P2
2023/07/31 00:01:16;;;;;;;;;;;;;;;27.09;36.54;98843.09;5051470;28;19909;-77
2023/07/31 00:03:41;;;;;;;;;;;;;;;27.10;36.21;98841.19;5051556;28;20000;-78
2023/07/31 00:06:07;;;;;;;;;;;;;;;27.04;37.08;98834.25;5051268;28;19908;-78
2023/07/31 00:08:32;;;;;;;;;;;;;;;26.99;36.14;98840.59;5033589;28;20003;-78
2023/07/31 00:10:57;;;;;;;;;;;;;;;26.90;36.22;98836.97;5051713;28;19916;-78
2023/07/31 00:13:23;;;;;;;;;;;;;;;26.88;37.40;98841.88;5033905;28;19912;-77
2023/07/31 00:15:48;;;;;;;;;;;;;;;26.86;35.29;98833.25;5051274;28;19931;-77
2023/07/31 00:18:14;;;;;;;;;;;;;;;26.74;36.84;98841.84;5051034;28;19913;-78
2023/07/31 00:20:39;;;;;;;;;;;;;;;26.75;36.55;98834.53;5051721;28;19909;-76
2023/07/31 00:23:04;;;;;;;;;;;;;;;26.73;37.82;98848.38;5051451;28;19909;-77
2023/07/31 00:25:29;;;;;;;;;;;;;;;26.75;38.93;98857.00;5051598;28;19912;-78
2023/07/31 00:27:54;;;;;;;;;;;;;;;26.72;38.86;98862.22;5051276;28;19916;-78
2023/07/31 00:30:20;;;;;;;;;;;;;;;26.69;38.99;98873.66;5051383;28;20444;-78
2023/07/31 00:32:45;;;;;;;;;;;;;;;26.63;38.04;98881.06;5051319;28;19912;-76
2023/07/31 00:35:10;;;;;;;;;;;;;;;26.57;39.00;98885.78;5051251;28;19912;-78
2023/07/31 00:37:35;;;;;;;;;;;;;;;26.57;38.98;98888.47;5033806;28;19919;-78
2023/07/31 00:40:03;;;;;;;;;;;;;;;26.53;38.40;98890.19;5033350;28;19908;-78
2023/07/31 00:42:28;;;;;;;;;;;;;;;26.50;40.75;98892.69;5035248;28;19916;-77
2023/07/31 00:44:53;;;;;;;;;;;;;;;26.49;39.11;98901.91;5036793;28;19908;-77
2023/07/31 00:47:19;;;;;;;;;;;;;;;26.48;40.02;98909.22;5054911;28;19911;-77
2023/07/31 00:49:44;;;;;;;;;;;;;;;26.53;39.53;98906.41;5054577;28;20361;-77
2023/07/31 00:52:10;;;;;;;;;;;;;;;26.51;38.95;98913.25;5054636;28;19943;-77
2023/07/31 00:54:35;;;;;;;;;;;;;;;26.49;39.19;98915.44;5054490;28;20312;-78
2023/07/31 00:57:00;;;;;;;;;;;;;;;26.44;39.52;98919.03;5054466;28;19916;-78
2023/07/31 00:59:26;;;;;;;;;;;;;;;26.33;42.67;98912.19;5054285;28;19916;-78
2023/07/31 01:01:51;;;;;;;;;;;;;;;26.30;41.47;98907.34;5054412;28;19913;-77
2023/07/31 01:04:17;;;;;;;;;;;;;;;26.33;40.00;98911.38;5054391;28;20366;-77
2023/07/31 01:06:46;;;;;;;;;;;;;;;26.34;40.92;98910.28;5054682;28;19991;-77
2023/07/31 01:09:30;;;;;;;;;;;;;;;26.30;39.98;98907.34;5036699;28;19984;-77
2023/07/31 01:12:01;;;;;;;;;;;;;;;26.18;40.97;98899.69;5067900;28;19908;-77
2023/07/31 01:14:26;;;;;;;;;;;;;;;26.21;39.94;98903.72;5063878;28;20420;-79
2023/07/31 01:16:51;;;;;;;;;;;;;;;26.13;43.45;98907.09;5036242;28;19952;-77
2023/07/31 01:19:19;;;;;;;;;;;;;;;26.15;39.52;98913.00;5054284;28;19970;-78
2023/07/31 01:22:13;;;;;;;;;;;;;;;26.08;40.65;98910.69;5054164;28;19904;-77
2023/07/31 01:24:38;;;;;;;;;;;;;;;26.09;39.53;98908.78;5040930;28;19915;-78
2023/07/31 01:27:03;;;;;;;;;;;;;;;26.06;42.70;98917.47;5036137;28;20433;-77
2023/07/31 01:29:34;;;;;;;;;;;;;;;26.04;43.71;98911.56;5054170;28;19908;-77
2023/07/31 01:32:01;;;;;;;;;;;;;;;26.01;42.22;98912.13;5053900;28;20305;-77
2023/07/31 01:34:28;;;;;;;;;;;;;;;25.99;44.43;98915.13;5056885;28;19909;-78
2023/07/31 01:36:53;;;;;;;;;;;;;;;26.00;42.27;98924.84;5063840;28;19951;-78
2023/07/31 01:39:20;;;;;;;;;;;;;;;26.01;43.09;98931.88;5057128;28;19962;-78
2023/07/31 01:41:45;;;;;;;;;;;;;;;26.05;43.24;98935.63;5053886;28;19916;-78
2023/07/31 01:44:11;;;;;;;;;;;;;;;26.04;41.76;98927.78;5054413;28;19912;-78
2023/07/31 01:46:36;;;;;;;;;;;;;;;26.08;43.19;98923.41;5054114;28;19931;-78
2023/07/31 01:49:01;;;;;;;;;;;;;;;26.07;43.20;98924.50;5053752;28;20043;-77
2023/07/31 01:51:26;;;;;;;;;;;;;;;26.05;42.40;98924.78;5053547;28;19908;-78
2023/07/31 01:53:52;;;;;;;;;;;;;;;26.04;44.21;98933.22;5052569;28;19916;-78
2023/07/31 01:56:17;;;;;;;;;;;;;;;26.05;43.01;98938.31;5053476;28;19908;-78
2023/07/31 01:58:42;;;;;;;;;;;;;;;26.04;44.43;98935.91;5053324;28;20388;-78
2023/07/31 02:01:07;;;;;;;;;;;;;;;26.05;44.50;98932.09;5035574;28;19912;-77
2023/07/31 02:03:33;;;;;;;;;;;;;;;26.05;43.28;98930.22;5053387;28;19909;-77
2023/07/31 02:05:58;;;;;;;;;;;;;;;26.04;44.58;98928.59;5052998;28;19962;-78
2023/07/31 02:08:23;;;;;;;;;;;;;;;26.03;42.62;98931.59;5035140;28;19905;-77
2023/07/31 02:10:48;;;;;;;;;;;;;;;26.00;43.67;98926.75;5053116;28;20317;-78
2023/07/31 02:13:14;;;;;;;;;;;;;;;26.00;42.17;98922.13;5053073;28;19909;-78
2023/07/31 02:15:39;;;;;;;;;;;;;;;25.95;45.55;98923.03;5053017;28;19909;-77
2023/07/31 02:18:04;;;;;;;;;;;;;;;25.94;43.57;98928.72;5052903;28;19917;-77
2023/07/31 02:20:29;;;;;;;;;;;;;;;25.97;45.23;98931.66;5035260;28;19915;-77
2023/07/31 02:22:55;;;;;;;;;;;;;;;25.98;44.78;98935.16;5035579;28;19905;-77
2023/07/31 02:25:20;;;;;;;;;;;;;;;26.00;44.54;98935.66;5035177;28;19909;-77
2023/07/31 02:27:45;;;;;;;;;;;;;;;26.00;44.33;98934.88;5034994;28;19948;-77
2023/07/31 02:30:11;;;;;;;;;;;;;;;26.02;44.25;98932.69;5053028;28;19905;-77
2023/07/31 02:32:36;;;;;;;;;;;;;;;26.01;45.44;98933.75;5034591;28;19915;-77
2023/07/31 02:35:01;;;;;;;;;;;;;;;25.98;43.69;98932.44;5034727;28;19908;-79
2023/07/31 02:37:28;;;;;;;;;;;;;;;26.03;44.06;98934.31;5052556;28;19917;-78
2023/07/31 02:39:53;;;;;;;;;;;;;;;25.98;44.42;98930.56;5052495;28;19916;-78
2023/07/31 02:42:19;;;;;;;;;;;;;;;25.91;42.46;98926.59;5052585;28;19909;-78
2023/07/31 02:44:44;;;;;;;;;;;;;;;25.87;43.36;98926.38;5052659;28;19909;-78
2023/07/31 02:47:09;;;;;;;;;;;;;;;25.78;43.85;98933.56;5034932;28;19961;-78
2023/07/31 02:49:34;;;;;;;;;;;;;;;25.71;41.87;98937.72;5052228;28;19963;-78
2023/07/31 02:51:59;;;;;;;;;;;;;;;25.61;44.73;98936.75;5052386;28;19955;-78
2023/07/31 02:54:25;;;;;;;;;;;;;;;25.55;44.33;98939.78;5052213;28;19915;-77
2023/07/31 02:56:50;;;;;;;;;;;;;;;25.49;44.73;98935.56;5052362;28;20374;-77
2023/07/31 02:59:16;;;;;;;;;;;;;;;25.45;45.65;98935.34;5052689;28;19916;-77
2023/07/31 03:01:42;;;;;;;;;;;;;;;25.37;45.27;98933.28;5034253;28;19913;-78
2023/07/31 03:04:07;;;;;;;;;;;;;;;25.32;44.88;98923.34;5052040;28;19915;-77
2023/07/31 03:06:32;;;;;;;;;;;;;;;25.28;44.62;98922.31;5052182;28;19908;-77
2023/07/31 03:08:57;;;;;;;;;;;;;;;25.28;45.19;98924.19;5052122;28;20373;-77
2023/07/31 03:11:23;;;;;;;;;;;;;;;25.27;45.10;98931.50;5052132;28;19916;-76
2023/07/31 03:13:48;;;;;;;;;;;;;;;25.19;45.53;98940.22;5052061;28;19913;-77
2023/07/31 03:16:13;;;;;;;;;;;;;;;25.14;44.76;98937.56;5034150;28;20404;-77
2023/07/31 03:18:38;;;;;;;;;;;;;;;25.20;44.45;98933.72;5034167;28;19938;-78
2023/07/31 03:21:04;;;;;;;;;;;;;;;25.24;44.81;98931.25;5051967;28;19912;-78
2023/07/31 03:23:29;;;;;;;;;;;;;;;25.24;44.28;98933.94;5051741;28;20389;-78
2023/07/31 03:25:55;;;;;;;;;;;;;;;25.19;43.70;98942.13;5052101;28;19908;-78
2023/07/31 03:28:20;;;;;;;;;;;;;;;25.13;43.58;98949.47;5051814;28;19916;-78
2023/07/31 03:30:45;;;;;;;;;;;;;;;25.09;44.25;98955.75;5051932;28;20321;-77
2023/07/31 03:33:10;;;;;;;;;;;;;;;25.05;43.70;98952.81;5051841;28;19912;-78
2023/07/31 03:35:36;;;;;;;;;;;;;;;25.01;45.35;98955.28;5051646;28;19916;-78
2023/07/31 03:38:01;;;;;;;;;;;;;;;24.96;43.38;98957.19;5033590;28;19923;-78
2023/07/31 03:40:27;;;;;;;;;;;;;;;24.91;44.52;98963.47;5051598;28;19909;-78
2023/07/31 03:42:52;;;;;;;;;;;;;;;24.96;43.50;98954.50;5033901;28;19932;-77
2023/07/31 03:45:17;;;;;;;;;;;;;;;24.84;44.40;98951.38;5033813;28;19908;-77
2023/07/31 03:47:43;;;;;;;;;;;;;;;24.88;44.56;98945.13;5033912;28;20377;-78
2023/07/31 03:50:08;;;;;;;;;;;;;;;24.94;43.86;98949.38;5034251;28;20321;-77
2023/07/31 03:52:33;;;;;;;;;;;;;;;24.98;44.28;98957.75;5033808;28;19966;-76
2023/07/31 03:54:58;;;;;;;;;;;;;;;24.92;45.88;98953.47;5051622;28;19908;-76
2023/07/31 03:57:24;;;;;;;;;;;;;;;24.88;45.42;98953.22;5033790;28;19913;-78
2023/07/31 03:59:49;;;;;;;;;;;;;;;24.89;45.32;98948.63;5051701;28;19916;-77
2023/07/31 04:02:14;;;;;;;;;;;;;;;24.91;45.61;98941.84;5051774;28;19955;-78
2023/07/31 04:04:39;;;;;;;;;;;;;;;24.93;45.09;98939.66;5051264;28;20317;-78
2023/07/31 04:07:05;;;;;;;;;;;;;;;24.97;44.87;98939.91;5051579;28;20301;-78
2023/07/31 04:09:31;;;;;;;;;;;;;;;25.02;46.24;98934.47;5051355;28;20357;-78
2023/07/31 04:11:56;;;;;;;;;;;;;;;24.97;45.29;98942.59;5051272;28;19909;-77
2023/07/31 04:14:21;;;;;;;;;;;;;;;24.95;45.90;98947.50;5051231;28;20543;-78
2023/07/31 04:16:47;;;;;;;;;;;;;;;24.99;45.19;98952.06;5034518;28;19909;-77
2023/07/31 04:19:16;;;;;;;;;;;;;;;25.04;44.25;98951.19;5037351;28;19949;-78
2023/07/31 04:21:41;;;;;;;;;;;;;;;25.08;45.95;98954.13;5056091;28;19915;-78
2023/07/31 04:24:06;;;;;;;;;;;;;;;25.05;45.80;98954.72;5055243;28;19992;-79
2023/07/31 04:26:32;;;;;;;;;;;;;;;25.08;44.95;98957.63;5055180;28;20301;-78
2023/07/31 04:28:57;;;;;;;;;;;;;;;25.16;45.67;98961.59;5055274;28;19967;-78
2023/07/31 04:31:22;;;;;;;;;;;;;;;25.18;45.50;98960.22;5054944;28;20385;-78
2023/07/31 04:33:47;;;;;;;;;;;;;;;25.24;44.29;98969.06;5054896;28;19908;-78
2023/07/31 04:36:13;;;;;;;;;;;;;;;25.22;44.43;98963.16;5054877;28;20407;-79
2023/07/31 04:38:38;;;;;;;;;;;;;;;25.28;45.72;98970.94;5054865;28;19913;-78
2023/07/31 04:41:05;;;;;;;;;;;;;;;25.34;44.97;98971.69;5054788;28;19982;-78
2023/07/31 04:43:30;;;;;;;;;;;;;;;25.40;44.90;98972.44;5054741;28;19916;-78
2023/07/31 04:45:55;;;;;;;;;;;;;;;25.38;45.07;98978.13;5054761;28;20329;-78
2023/07/31 04:48:21;;;;;;;;;;;;;;;25.46;44.66;98984.78;5036629;28;19909;-79
2023/07/31 04:50:46;;;;;;;;;;;;;;;25.49;43.94;98989.63;5036686;28;19908;-78
2023/07/31 04:53:11;;;;;;;;;;;;;;;25.53;43.38;98994.16;5054710;28;19912;-78
2023/07/31 04:55:37;;;;;;;;;;;;;;;25.62;44.30;98991.63;5036669;28;19908;-79
2023/07/31 04:58:02;;;;;;;;;;;;;;;25.68;43.26;98993.19;5054188;28;19962;-78
2023/07/31 05:00:27;;;;;;;;;;;;;;;25.71;42.86;98995.31;5054624;28;20007;-77
2023/07/31 05:02:52;;;;;;;;;;;;;;;25.71;43.25;98992.59;5054495;28;19962;-77
2023/07/31 05:05:18;;;;;;;;;;;;;;;25.74;42.71;98993.94;5054616;28;20297;-78
2023/07/31 05:07:43;;;;;;;;;;;;;;;25.71;42.81;98992.59;5054137;28;19916;-78
2023/07/31 05:10:08;;;;;;;;;;;;;;;25.67;43.74;99004.28;5036206;28;19909;-78
2023/07/31 05:12:34;;;;;;;;;;;;;;;25.54;44.00;99005.78;5054275;28;19919;-76
2023/07/31 05:14:59;;;;;;;;;;;;;;;25.58;43.10;99009.50;5036273;28;19915;-78
2023/07/31 05:17:24;;;;;;;;;;;;;;;25.69;43.05;99023.72;5036238;28;19931;-78
2023/07/31 05:19:49;;;;;;;;;;;;;;;25.76;43.43;99046.63;5054169;28;19948;-78
2023/07/31 05:22:15;;;;;;;;;;;;;;;25.75;43.49;99057.72;5054322;28;19914;-78
2023/07/31 05:24:40;;;;;;;;;;;;;;;25.77;43.21;99066.34;5036225;28;19983;-78
2023/07/31 05:27:05;;;;;;;;;;;;;;;25.86;43.18;99059.22;5054082;28;19932;-77
2023/07/31 05:29:30;;;;;;;;;;;;;;;25.90;43.32;99063.75;5052695;28;19913;-78
2023/07/31 05:31:56;;;;;;;;;;;;;;;25.92;43.10;99075.09;5054048;28;19935;-77
2023/07/31 05:34:21;;;;;;;;;;;;;;;25.79;46.52;99072.28;5054043;28;20266;-78
2023/07/31 05:36:46;;;;;;;;;;;;;;;25.85;44.92;99081.94;5053808;28;19909;-78
2023/07/31 05:39:12;;;;;;;;;;;;;;;25.77;45.72;99088.00;5053733;28;19917;-78
2023/07/31 05:41:37;;;;;;;;;;;;;;;25.65;46.50;99097.31;5053911;28;20495;-78
2023/07/31 05:44:02;;;;;;;;;;;;;;;25.68;47.44;99089.72;5053730;28;19958;-78
2023/07/31 05:46:28;;;;;;;;;;;;;;;25.64;47.14;99086.75;5053572;28;19908;-77
2023/07/31 05:48:53;;;;;;;;;;;;;;;25.69;45.88;99091.34;5053543;28;19948;-79
2023/07/31 05:51:18;;;;;;;;;;;;;;;25.58;48.47;99104.13;5053451;28;19915;-77
2023/07/31 05:53:43;;;;;;;;;;;;;;;25.53;48.33;99101.47;5053323;28;19920;-77
2023/07/31 05:56:09;;;;;;;;;;;;;;;25.42;49.88;99091.88;5035751;28;20317;-78
2023/07/31 05:58:34;;;;;;;;;;;;;;;25.38;47.29;99093.53;5053578;28;19921;-77
2023/07/31 06:00:59;;;;;;;;;;;;;;;25.27;47.22;99092.81;5053867;28;19909;-78
2023/07/31 06:03:25;;;;;;;;;;;;;;;25.16;48.97;99096.69;5035674;28;20286;-78
2023/07/31 06:05:50;;;;;;;;;;;;;;;25.15;48.83;99097.78;5035522;28;19909;-78
2023/07/31 06:08:15;;;;;;;;;;;;;;;25.10;49.04;99101.34;5053253;28;19909;-77
2023/07/31 06:10:40;;;;;;;;;;;;;;;25.03;52.42;99107.06;5053105;28;20340;-79
2023/07/31 06:13:06;;;;;;;;;;;;;;;24.99;50.89;99110.63;5052900;28;19955;-75
2023/07/31 06:15:31;;;;;;;;;;;;;;;24.88;49.98;99117.97;5052899;28;19913;-75
2023/07/31 06:17:57;;;;;;;;;;;;;;;24.67;51.94;99117.31;5053010;28;19967;-74
2023/07/31 06:20:22;;;;;;;;;;;;;;;24.55;54.10;99114.16;5052686;28;20324;-77
2023/07/31 06:22:48;;;;;;;;;;;;;;;24.47;54.52;99117.41;5052131;28;19913;-76
2023/07/31 06:25:13;;;;;;;;;;;;;;;24.35;57.91;99112.34;5052861;28;20282;-76
2023/07/31 06:27:38;;;;;;;;;;;;;;;24.27;55.95;99115.63;5052297;28;19969;-76
2023/07/31 06:30:04;;;;;;;;;;;;;;;24.25;56.53;99111.56;5052749;28;19908;-75
2023/07/31 06:32:30;;;;;;;;;;;;;;;24.26;55.16;99119.38;5052434;28;19913;-76
2023/07/31 06:34:55;;;;;;;;;;;;;;;24.29;55.42;99115.34;5052488;28;20347;-75
2023/07/31 06:37:20;;;;;;;;;;;;;;;24.34;53.71;99115.31;5052908;28;20455;-75
2023/07/31 06:39:45;;;;;;;;;;;;;;;24.37;52.94;99109.38;5052001;28;19913;-73
2023/07/31 06:42:11;;;;;;;;;;;;;;;24.42;53.36;99100.44;5052260;28;20002;-75
2023/07/31 06:44:36;;;;;;;;;;;;;;;24.46;56.67;99104.19;5051835;28;20377;-77
2023/07/31 06:47:01;;;;;;;;;;;;;;;24.46;56.74;99102.31;5052067;28;19916;-76
2023/07/31 06:49:26;;;;;;;;;;;;;;;24.45;56.80;99097.19;5051822;28;19987;-75
2023/07/31 06:51:52;;;;;;;;;;;;;;;24.45;55.85;99099.88;5052009;28;19908;-75
2023/07/31 06:54:17;;;;;;;;;;;;;;;24.50;54.90;99103.34;5051828;28;20399;-76
2023/07/31 06:56:42;;;;;;;;;;;;;;;24.59;56.49;99099.00;5051904;28;19913;-76
2023/07/31 06:59:07;;;;;;;;;;;;;;;24.65;55.10;99102.47;5051326;28;19917;-74
2023/07/31 07:01:33;;;;;;;;;;;;;;;24.66;57.00;99112.19;5051912;28;19915;-74
2023/07/31 07:03:58;;;;;;;;;;;;;;;24.69;55.34;99109.72;5051813;28;19916;-75
2023/07/31 07:06:23;;;;;;;;;;;;;;;24.66;53.86;99104.09;5032243;28;20305;-75
2023/07/31 07:08:49;;;;;;;;;;;;;;;24.65;56.88;99107.88;5032141;28;19917;-77
2023/07/31 07:11:14;;;;;;;;;;;;;;;24.61;55.67;99110.31;5032252;28;19940;-76
2023/07/31 07:13:39;;;;;;;;;;;;;;;24.62;56.61;99111.13;5014195;28;19909;-76
2023/07/31 07:16:04;;;;;;;;;;;;;;;24.62;56.63;99111.13;5031911;28;19992;-76
2023/07/31 07:18:30;;;;;;;;;;;;;;;24.61;56.01;99109.53;5033204;28;19919;-74
2023/07/31 07:20:58;;;;;;;;;;;;;;;24.63;58.00;99108.16;5051842;28;19908;-76
2023/07/31 07:23:23;;;;;;;;;;;;;;;24.46;56.77;99107.69;5033938;28;19908;-76
2023/07/31 07:25:48;;;;;;;;;;;;;;;24.44;54.75;99109.88;5034266;28;20231;-74
2023/07/31 07:28:14;;;;;;;;;;;;;;;24.41;55.69;99113.13;5051798;28;19908;-76
2023/07/31 07:30:39;;;;;;;;;;;;;;;24.44;56.98;99112.56;5045807;28;19924;-76
2023/07/31 07:33:05;;;;;;;;;;;;;;;24.48;55.58;99112.81;5053254;28;21004;-75
2023/07/31 07:35:30;;;;;;;;;;;;;;;24.54;56.39;99117.94;5052979;28;20363;-77
2023/07/31 07:37:56;;;;;;;;;;;;;;;24.52;57.71;99117.38;5031657;28;20008;-76
2023/07/31 07:40:21;;;;;;;;;;;;;;;24.55;56.06;99118.75;5047208;28;19929;-76
2023/07/31 07:42:47;;;;;;;;;;;;;;;24.58;57.03;99107.38;5051607;28;19916;-74
2023/07/31 07:45:12;;;;;;;;;;;;;;;24.66;55.45;99110.28;5049723;28;19920;-76
2023/07/31 07:47:38;;;;;;;;;;;;;;;24.70;57.78;99111.34;5031645;28;20282;-76
2023/07/31 07:50:03;;;;;;;;;;;;;;;24.82;54.55;99111.00;5031655;28;20401;-74
2023/07/31 07:52:29;;;;;;;;;;;;;;;24.95;54.81;99113.03;5051513;28;19916;-76
2023/07/31 07:54:55;;;;;;;;;;;;;;;25.04;55.36;99115.97;5047950;28;19909;-77
2023/07/31 07:57:20;;;;;;;;;;;;;;;25.15;56.13;99111.28;5052589;28;20381;-77
2023/07/31 07:59:45;;;;;;;;;;;;;;;25.16;55.28;99110.19;5053525;28;19916;-78
2023/07/31 08:02:10;;;;;;;;;;;;;;;25.19;54.98;99101.53;5054702;28;19920;-76
2023/07/31 08:04:36;;;;;;;;;;;;;;;25.28;55.94;99103.34;5045093;28;19913;-77
2023/07/31 08:07:01;;;;;;;;;;;;;;;25.38;55.43;99101.63;5054683;28;19917;-77
2023/07/31 08:09:26;;;;;;;;;;;;;;;25.48;55.46;99101.53;5055032;28;19992;-77
2023/07/31 08:11:57;;;;;;;;;;;;;;;25.54;54.31;99103.91;5037510;28;20399;-76
2023/07/31 08:14:22;;;;;;;;;;;;;;;25.63;54.27;99090.56;5055192;28;19963;-77
2023/07/31 08:16:47;;;;;;;;;;;;;;;25.70;54.65;99092.94;5051451;28;20405;-77
2023/07/31 08:19:12;;;;;;;;;;;;;;;25.78;52.41;99095.81;5036594;28;19974;-76
2023/07/31 08:21:38;;;;;;;;;;;;;;;25.92;52.75;99093.22;5054856;28;19909;-77
2023/07/31 08:24:03;;;;;;;;;;;;;;;26.05;55.53;99102.56;5037153;28;19917;-77
2023/07/31 08:26:28;;;;;;;;;;;;;;;26.17;54.80;99108.34;5035695;28;19919;-74
2023/07/31 08:28:53;;;;;;;;;;;;;;;26.28;53.94;99115.22;5055023;28;19916;-76
2023/07/31 08:31:19;;;;;;;;;;;;;;;26.36;55.06;99108.38;5034986;28;19920;-75
2023/07/31 08:33:44;;;;;;;;;;;;;;;26.46;51.98;99102.84;5054712;28;19931;-77
2023/07/31 08:36:09;;;;;;;;;;;;;;;26.55;51.91;99110.00;5053858;28;19912;-78
2023/07/31 08:38:34;;;;;;;;;;;;;;;26.70;52.81;99100.03;5034742;28;19917;-75
2023/07/31 08:41:00;;;;;;;;;;;;;;;26.89;52.68;99104.34;5053775;28;20308;-77
2023/07/31 08:43:26;;;;;;;;;;;;;;;26.95;52.32;99109.69;5052327;28;19994;-77
2023/07/31 08:45:51;;;;;;;;;;;;;;;27.07;53.51;99101.94;5035782;28;19999;-77
2023/07/31 08:48:17;;;;;;;;;;;;;;;27.13;51.44;99106.16;5032569;28;19988;-77
2023/07/31 08:50:42;;;;;;;;;;;;;;;27.12;50.87;99102.63;5026693;28;20003;-77
2023/07/31 08:53:08;;;;;;;;;;;;;;;27.16;51.11;99106.38;5048380;28;19908;-78
2023/07/31 08:55:34;;;;;;;;;;;;;;;27.30;51.51;99119.94;5052942;28;19917;-77
2023/07/31 08:57:59;;;;;;;;;;;;;;;27.52;48.16;99111.16;5035213;28;19917;-77
2023/07/31 09:00:25;;;;;;;;;;;;;;;27.63;49.35;99104.47;5025160;28;19917;-77
2023/07/31 09:03:08;;;;;;;;;;;;;;;27.81;49.71;99103.56;5050338;28;20309;-77
2023/07/31 09:05:34;;;;;;;;;;;;;;;28.12;49.60;99105.66;5052054;28;19943;-76
2023/07/31 09:08:00;;;;;;;;;;;;;;;28.33;47.99;99106.88;5053642;28;19971;-76
2023/07/31 09:10:25;;;;;;;;;;;;;;;28.53;46.72;99100.19;5036342;28;20317;-77
2023/07/31 09:12:51;;;;;;;;;;;;;;;28.68;47.38;99107.16;5054147;28;19995;-77
2023/07/31 09:15:17;;;;;;;;;;;;;;;28.81;46.50;99106.31;5033194;28;19913;-78
2023/07/31 09:17:42;;;;;;;;;;;;;;;28.99;47.17;99105.38;5053859;28;19962;-78
2023/07/31 09:20:21;;;;;;;;;;;;;;;29.18;47.37;99094.28;5039771;28;19917;-77
2023/07/31 09:22:47;;;;;;;;;;;;;;;29.27;46.51;99097.06;5053036;28;19920;-76
2023/07/31 09:25:16;;;;;;;;;;;;;;;29.40;46.13;99098.88;5051217;28;20004;-78
2023/07/31 09:27:54;;;;;;;;;;;;;;;29.68;45.01;99091.34;5053887;28;20364;-76
2023/07/31 09:30:19;;;;;;;;;;;;;;;29.94;44.30;99086.81;5053284;28;19924;-78
2023/07/31 09:32:45;;;;;;;;;;;;;;;30.10;44.19;99100.00;5053126;28;20301;-78
2023/07/31 09:35:16;;;;;;;;;;;;;;;30.35;43.89;99094.59;5052549;28;19912;-77
2023/07/31 09:37:42;;;;;;;;;;;;;;;30.54;43.26;99083.41;5053918;28;19971;-77
2023/07/31 09:40:07;;;;;;;;;;;;;;;30.50;43.51;99087.91;5050027;28;20480;-78
2023/07/31 09:42:34;;;;;;;;;;;;;;;30.46;44.15;99086.91;5052599;28;19912;-78
2023/07/31 09:45:09;;;;;;;;;;;;;;;30.59;43.26;99086.00;5051829;28;19912;-77
2023/07/31 09:47:34;;;;;;;;;;;;;;;30.83;42.76;99084.69;5052887;28;20047;-76
2023/07/31 09:50:00;;;;;;;;;;;;;;;30.94;42.56;99086.75;5050271;28;20421;-77
2023/07/31 09:52:26;;;;;;;;;;;;;;;30.77;42.81;99088.72;5032950;28;19912;-76
2023/07/31 09:54:51;;;;;;;;;;;;;;;30.78;42.69;99085.66;5032672;28;19916;-75
2023/07/31 09:57:17;;;;;;;;;;;;;;;30.88;42.88;99088.06;5051817;28;19962;-76
2023/07/31 09:59:42;;;;;;;;;;;;;;;31.17;42.15;99090.09;5050784;28;19956;-78
2023/07/31 10:02:13;;;;;;;;;;;;;;;31.32;42.07;99088.81;5053108;28;19912;-77
2023/07/31 10:04:38;;;;;;;;;;;;;;;31.53;41.49;99089.69;5051240;28;19920;-77
2023/07/31 10:07:04;;;;;;;;;;;;;;;31.82;41.43;99088.94;5052449;28;19956;-78
2023/07/31 10:09:31;;;;;;;;;;;;;;;31.95;40.39;99087.09;5051911;28;19913;-77
2023/07/31 10:12:00;;;;;;;;;;;;;;;32.05;40.35;99081.28;5025355;28;20424;-78
2023/07/31 10:14:26;;;;;;;;;;;;;;;32.28;40.03;99072.78;5048297;28;19919;-77
2023/07/31 10:16:52;;;;;;;;;;;;;;;32.48;39.97;99074.72;5033770;28;19919;-77
2023/07/31 10:19:18;;;;;;;;;;;;;;;32.68;38.89;99070.34;5050665;28;19917;-77
2023/07/31 10:21:44;;;;;;;;;;;;;;;32.65;39.53;99076.50;5052642;28;19940;-77
2023/07/31 10:24:09;;;;;;;;;;;;;;;32.74;39.30;99079.97;5052406;28;19909;-77
2023/07/31 10:26:35;;;;;;;;;;;;;;;32.66;39.06;99073.44;5034540;28;20310;-78
2023/07/31 10:29:01;;;;;;;;;;;;;;;32.71;38.84;99066.97;5032595;28;19956;-77
2023/07/31 10:31:26;;;;;;;;;;;;;;;32.93;38.37;99066.63;5052847;28;19947;-77
2023/07/31 10:33:53;;;;;;;;;;;;;;;33.16;38.02;99054.13;5050913;28;20028;-77
2023/07/31 10:36:19;;;;;;;;;;;;;;;33.28;37.50;99061.56;5051306;28;20481;-76
2023/07/31 10:38:45;;;;;;;;;;;;;;;33.32;37.62;99053.50;5051919;28;20352;-76
2023/07/31 10:41:11;;;;;;;;;;;;;;;33.36;37.33;99048.94;5035510;28;19912;-76
2023/07/31 10:43:36;;;;;;;;;;;;;;;33.34;37.09;99045.75;5059518;28;19919;-78
2023/07/31 10:46:06;;;;;;;;;;;;;;;33.47;36.99;99047.38;5035488;28;19916;-76
2023/07/31 10:48:33;;;;;;;;;;;;;;;33.53;36.71;99045.22;5032698;28;19913;-75
2023/07/31 10:50:58;;;;;;;;;;;;;;;33.69;36.42;99035.97;5049857;28;20061;-77
2023/07/31 10:53:29;;;;;;;;;;;;;;;33.91;36.34;99029.25;5050329;28;20007;-78
2023/07/31 10:55:58;;;;;;;;;;;;;;;33.89;35.85;99023.31;5049987;28;19970;-75
2023/07/31 10:58:23;;;;;;;;;;;;;;;33.93;36.32;99023.41;5034218;28;19978;-78
2023/07/31 11:00:48;;;;;;;;;;;;;;;33.99;35.72;99020.09;5029741;28;20337;-77
2023/07/31 11:03:15;;;;;;;;;;;;;;;33.95;35.69;99016.44;5045954;28;19920;-76
2023/07/31 11:05:41;;;;;;;;;;;;;;;33.96;35.47;99014.50;5052104;28;19920;-77
2023/07/31 11:08:13;;;;;;;;;;;;;;;33.99;35.95;99006.38;5038829;28;20341;-79
2023/07/31 11:10:38;;;;;;;;;;;;;;;34.03;35.65;99010.03;5042012;28;19988;-77
2023/07/31 11:13:06;;;;;;;;;;;;;;;34.15;35.55;99006.47;5051058;28;19959;-77
2023/07/31 11:15:31;;;;;;;;;;;;;;;34.36;34.67;99006.31;5049903;28;19923;-77
2023/07/31 11:18:00;;;;;;;;;;;;;;;34.54;34.44;98999.38;5045222;28;19916;-77
2023/07/31 11:20:25;;;;;;;;;;;;;;;34.73;34.50;98993.22;5049642;28;19920;-77
2023/07/31 11:22:50;;;;;;;;;;;;;;;34.81;33.94;98997.75;5048778;28;19920;-77
2023/07/31 11:25:16;;;;;;;;;;;;;;;34.98;33.78;98996.69;5051480;28;20343;-77
2023/07/31 11:27:42;;;;;;;;;;;;;;;35.14;34.04;99002.97;5044309;28;19948;-78
2023/07/31 11:30:07;;;;;;;;;;;;;;;35.23;33.29;98991.81;5048573;28;19919;-78
2023/07/31 11:32:32;;;;;;;;;;;;;;;35.43;31.94;98995.44;5040757;28;19913;-76
2023/07/31 11:34:57;;;;;;;;;;;;;;;35.56;33.07;98985.94;5050697;28;19962;-78
2023/07/31 11:37:23;;;;;;;;;;;;;;;35.58;32.11;98987.19;5050758;28;20071;-77
2023/07/31 11:40:01;;;;;;;;;;;;;;;35.54;31.97;98980.81;5050196;28;19913;-76
2023/07/31 11:42:26;;;;;;;;;;;;;;;35.46;32.66;98970.03;5032104;28;20409;-76
2023/07/31 11:44:51;;;;;;;;;;;;;;;35.49;33.03;98963.81;5039191;28;19943;-76
2023/07/31 11:47:17;;;;;;;;;;;;;;;35.64;31.98;98957.47;5049862;28;19916;-78
2023/07/31 11:49:43;;;;;;;;;;;;;;;35.84;32.13;98955.63;5030882;28;19918;-77
2023/07/31 11:52:09;;;;;;;;;;;;;;;35.96;31.21;98958.22;5050335;28;19928;-78
2023/07/31 11:54:34;;;;;;;;;;;;;;;36.00;31.34;98952.81;5047899;28;19912;-77
2023/07/31 11:57:01;;;;;;;;;;;;;;;36.12;32.04;98955.41;5032977;28;20362;-76
2023/07/31 11:59:26;;;;;;;;;;;;;;;36.09;29.95;98947.88;5047987;28;19917;-77
2023/07/31 12:01:53;;;;;;;;;;;;;;;36.11;30.77;98945.56;5049496;28;19924;-77
2023/07/31 12:04:19;;;;;;;;;;;;;;;36.21;31.11;98947.72;5049765;28;19922;-77
2023/07/31 12:06:45;;;;;;;;;;;;;;;36.28;31.06;98939.63;5048247;28;19912;-79
2023/07/31 12:09:10;;;;;;;;;;;;;;;36.41;29.98;98938.31;5049818;28;19967;-78
2023/07/31 12:11:45;;;;;;;;;;;;;;;36.55;29.44;98932.31;5048640;28;19996;-77
2023/07/31 12:14:19;;;;;;;;;;;;;;;36.57;29.52;98924.50;5051362;28;19909;-77
2023/07/31 12:16:45;;;;;;;;;;;;;;;36.69;30.16;98923.53;5020204;28;20455;-78
2023/07/31 12:19:10;;;;;;;;;;;;;;;36.75;30.02;98928.34;5028145;28;20007;-77
2023/07/31 12:21:37;;;;;;;;;;;;;;;36.78;30.15;98913.88;5031551;28;19915;-78
2023/07/31 12:24:03;;;;;;;;;;;;;;;36.78;30.10;98913.88;5036027;28;20385;-77
2023/07/31 12:26:35;;;;;;;;;;;;;;;36.88;29.97;98905.00;5045541;28;19920;-77
2023/07/31 12:29:01;;;;;;;;;;;;;;;37.01;29.32;98905.59;5048741;28;19919;-77
2023/07/31 12:31:27;;;;;;;;;;;;;;;37.06;29.93;98910.00;5051242;28;20451;-78
2023/07/31 12:33:53;;;;;;;;;;;;;;;37.09;29.31;98896.28;5048887;28;19999;-77
2023/07/31 12:36:20;;;;;;;;;;;;;;;37.08;29.79;98902.16;5032795;28;19996;-78
2023/07/31 12:38:46;;;;;;;;;;;;;;;37.18;29.71;98901.56;5031145;28;19916;-76
2023/07/31 12:41:11;;;;;;;;;;;;;;;36.78;30.24;98910.34;5035408;28;19967;-78